sensor_id;sensor_type;location;lat;lon;timestamp;P1;durP1;ratioP1;P2;durP2;ratioP2
77146;SDS011;66121;52.584;9.694;2024-01-06T00:00:16;28.90;;;13.45;;
77146;SDS011;66121;52.584;9.694;2024-01-06T00:02:41;41.47;;;18.65;;
77146;SDS011;66121;52.584;9.694;2024-01-06T00:05:07;32.88;;;12.18;;
77146;SDS011;66121;52.584;9.694;2024-01-06T00:07:32;25.70;;;10.93;;
77146;SDS011;66121;52.584;9.694;2024-01-06T00:09:58;29.40;;;12.48;;
77146;SDS011;66121;52.584;9.694;2024-01-06T00:12:23;29.67;;;11.27;;
77146;SDS011;66121;52.584;9.694;2024-01-06T00:14:48;36.50;;;13.00;;
77146;SDS011;66121;52.584;9.694;2024-01-06T00:17:14;32.25;;;12.50;;
77146;SDS011;66121;52.584;9.694;2024-01-06T00:19:39;25.90;;;9.43;;
77146;SDS011;66121;52.584;9.694;2024-01-06T00:22:04;29.23;;;11.85;;
77146;SDS011;66121;52.584;9.694;2024-01-06T00:24:30;33.17;;;12.82;;
77146;SDS011;66121;52.584;9.694;2024-01-06T00:26:55;32.75;;;13.25;;
77146;SDS011;66121;52.584;9.694;2024-01-06T00:29:21;33.20;;;12.43;;
77146;SDS011;66121;52.584;9.694;2024-01-06T00:31:46;30.33;;;13.60;;
77146;SDS011;66121;52.584;9.694;2024-01-06T00:34:11;51.83;;;27.20;;
77146;SDS011;66121;52.584;9.694;2024-01-06T00:36:37;35.73;;;16.00;;
77146;SDS011;66121;52.584;9.694;2024-01-06T00:39:02;32.17;;;13.47;;
77146;SDS011;66121;52.584;9.694;2024-01-06T00:41:28;33.45;;;14.32;;
77146;SDS011;66121;52.584;9.694;2024-01-06T00:43:54;30.25;;;12.60;;
77146;SDS011;66121;52.584;9.694;2024-01-06T00:46:19;33.10;;;12.75;;
77146;SDS011;66121;52.584;9.694;2024-01-06T00:48:45;41.10;;;17.60;;
77146;SDS011;66121;52.584;9.694;2024-01-06T00:51:10;33.20;;;12.20;;
77146;SDS011;66121;52.584;9.694;2024-01-06T00:53:35;34.25;;;13.07;;
77146;SDS011;66121;52.584;9.694;2024-01-06T00:56:01;29.55;;;10.73;;
77146;SDS011;66121;52.584;9.694;2024-01-06T00:58:26;29.83;;;12.02;;
77146;SDS011;66121;52.584;9.694;2024-01-06T01:00:51;28.83;;;12.65;;
77146;SDS011;66121;52.584;9.694;2024-01-06T01:03:17;28.05;;;11.77;;
77146;SDS011;66121;52.584;9.694;2024-01-06T01:05:42;24.63;;;9.45;;
77146;SDS011;66121;52.584;9.694;2024-01-06T01:08:08;34.67;;;13.18;;
77146;SDS011;66121;52.584;9.694;2024-01-06T01:10:33;32.45;;;12.98;;
77146;SDS011;66121;52.584;9.694;2024-01-06T01:12:58;51.35;;;18.90;;
77146;SDS011;66121;52.584;9.694;2024-01-06T01:15:24;91.53;;;28.83;;
77146;SDS011;66121;52.584;9.694;2024-01-06T01:17:49;114.68;;;33.83;;
77146;SDS011;66121;52.584;9.694;2024-01-06T01:20:14;51.63;;;29.20;;
77146;SDS011;66121;52.584;9.694;2024-01-06T01:22:40;36.60;;;18.53;;
77146;SDS011;66121;52.584;9.694;2024-01-06T01:25:05;33.93;;;14.63;;
77146;SDS011;66121;52.584;9.694;2024-01-06T01:27:33;43.00;;;20.30;;
77146;SDS011;66121;52.584;9.694;2024-01-06T01:30:01;33.85;;;16.85;;
77146;SDS011;66121;52.584;9.694;2024-01-06T01:32:26;32.50;;;15.13;;
77146;SDS011;66121;52.584;9.694;2024-01-06T01:34:51;23.00;;;12.63;;
77146;SDS011;66121;52.584;9.694;2024-01-06T01:37:17;37.70;;;17.95;;
77146;SDS011;66121;52.584;9.694;2024-01-06T01:39:42;39.92;;;19.63;;
77146;SDS011;66121;52.584;9.694;2024-01-06T01:42:07;37.00;;;16.17;;
77146;SDS011;66121;52.584;9.694;2024-01-06T01:44:33;35.45;;;15.45;;
77146;SDS011;66121;52.584;9.694;2024-01-06T01:46:58;44.10;;;20.02;;
77146;SDS011;66121;52.584;9.694;2024-01-06T01:49:24;52.25;;;24.33;;
77146;SDS011;66121;52.584;9.694;2024-01-06T01:51:50;61.08;;;23.95;;
77146;SDS011;66121;52.584;9.694;2024-01-06T01:54:16;49.03;;;20.05;;
77146;SDS011;66121;52.584;9.694;2024-01-06T01:56:42;66.57;;;30.45;;
77146;SDS011;66121;52.584;9.694;2024-01-06T01:59:11;41.65;;;17.15;;
77146;SDS011;66121;52.584;9.694;2024-01-06T02:01:38;47.20;;;19.83;;
77146;SDS011;66121;52.584;9.694;2024-01-06T02:04:07;42.78;;;18.42;;
77146;SDS011;66121;52.584;9.694;2024-01-06T02:06:34;37.20;;;16.20;;
77146;SDS011;66121;52.584;9.694;2024-01-06T02:08:59;32.97;;;15.23;;
77146;SDS011;66121;52.584;9.694;2024-01-06T02:11:25;59.05;;;30.88;;
77146;SDS011;66121;52.584;9.694;2024-01-06T02:13:51;49.88;;;23.08;;
77146;SDS011;66121;52.584;9.694;2024-01-06T02:16:16;51.45;;;20.92;;
77146;SDS011;66121;52.584;9.694;2024-01-06T02:18:42;29.27;;;12.38;;
77146;SDS011;66121;52.584;9.694;2024-01-06T02:21:07;45.05;;;18.15;;
77146;SDS011;66121;52.584;9.694;2024-01-06T02:23:34;37.75;;;15.07;;
77146;SDS011;66121;52.584;9.694;2024-01-06T02:26:00;29.75;;;12.32;;
77146;SDS011;66121;52.584;9.694;2024-01-06T02:28:26;35.60;;;14.35;;
77146;SDS011;66121;52.584;9.694;2024-01-06T02:30:52;37.65;;;16.15;;
77146;SDS011;66121;52.584;9.694;2024-01-06T02:33:17;38.58;;;13.70;;
77146;SDS011;66121;52.584;9.694;2024-01-06T02:35:44;35.78;;;14.02;;
77146;SDS011;66121;52.584;9.694;2024-01-06T02:38:13;29.95;;;13.68;;
77146;SDS011;66121;52.584;9.694;2024-01-06T02:40:38;39.20;;;14.93;;
77146;SDS011;66121;52.584;9.694;2024-01-06T02:43:03;30.27;;;11.17;;
77146;SDS011;66121;52.584;9.694;2024-01-06T02:45:29;53.15;;;20.60;;
77146;SDS011;66121;52.584;9.694;2024-01-06T02:47:54;40.07;;;16.23;;
77146;SDS011;66121;52.584;9.694;2024-01-06T02:50:19;46.53;;;18.10;;
77146;SDS011;66121;52.584;9.694;2024-01-06T02:52:45;34.55;;;14.25;;
77146;SDS011;66121;52.584;9.694;2024-01-06T02:55:10;56.80;;;24.60;;
77146;SDS011;66121;52.584;9.694;2024-01-06T02:57:37;45.35;;;18.08;;
77146;SDS011;66121;52.584;9.694;2024-01-06T03:00:02;66.63;;;25.65;;
77146;SDS011;66121;52.584;9.694;2024-01-06T03:02:28;46.92;;;19.92;;
77146;SDS011;66121;52.584;9.694;2024-01-06T03:04:53;28.40;;;12.15;;
77146;SDS011;66121;52.584;9.694;2024-01-06T03:07:20;47.63;;;18.98;;
77146;SDS011;66121;52.584;9.694;2024-01-06T03:09:45;68.88;;;26.27;;
77146;SDS011;66121;52.584;9.694;2024-01-06T03:12:11;56.63;;;21.52;;
77146;SDS011;66121;52.584;9.694;2024-01-06T03:14:36;41.97;;;17.75;;
77146;SDS011;66121;52.584;9.694;2024-01-06T03:17:02;39.67;;;17.25;;
77146;SDS011;66121;52.584;9.694;2024-01-06T03:19:28;39.05;;;15.85;;
77146;SDS011;66121;52.584;9.694;2024-01-06T03:21:54;21.83;;;10.63;;
77146;SDS011;66121;52.584;9.694;2024-01-06T03:24:23;31.60;;;12.00;;
77146;SDS011;66121;52.584;9.694;2024-01-06T03:26:50;25.13;;;11.15;;
77146;SDS011;66121;52.584;9.694;2024-01-06T03:29:15;29.98;;;11.73;;
77146;SDS011;66121;52.584;9.694;2024-01-06T03:31:44;25.48;;;11.15;;
77146;SDS011;66121;52.584;9.694;2024-01-06T03:34:10;36.30;;;13.50;;
77146;SDS011;66121;52.584;9.694;2024-01-06T03:36:36;35.03;;;12.00;;
77146;SDS011;66121;52.584;9.694;2024-01-06T03:39:02;30.17;;;10.52;;
77146;SDS011;66121;52.584;9.694;2024-01-06T03:41:27;29.02;;;11.15;;
77146;SDS011;66121;52.584;9.694;2024-01-06T03:43:53;29.07;;;12.43;;
77146;SDS011;66121;52.584;9.694;2024-01-06T03:46:18;27.77;;;11.47;;
77146;SDS011;66121;52.584;9.694;2024-01-06T03:48:43;33.20;;;11.40;;
77146;SDS011;66121;52.584;9.694;2024-01-06T03:51:09;32.70;;;13.37;;
77146;SDS011;66121;52.584;9.694;2024-01-06T03:53:35;24.77;;;10.00;;
77146;SDS011;66121;52.584;9.694;2024-01-06T03:56:01;32.20;;;13.50;;
77146;SDS011;66121;52.584;9.694;2024-01-06T03:58:27;42.63;;;14.30;;
77146;SDS011;66121;52.584;9.694;2024-01-06T04:00:53;41.80;;;15.10;;
77146;SDS011;66121;52.584;9.694;2024-01-06T04:03:18;41.63;;;14.30;;
77146;SDS011;66121;52.584;9.694;2024-01-06T04:05:43;42.80;;;16.37;;
77146;SDS011;66121;52.584;9.694;2024-01-06T04:08:09;42.85;;;13.52;;
77146;SDS011;66121;52.584;9.694;2024-01-06T04:10:34;40.28;;;13.65;;
77146;SDS011;66121;52.584;9.694;2024-01-06T04:13:00;46.17;;;16.15;;
77146;SDS011;66121;52.584;9.694;2024-01-06T04:15:25;41.63;;;14.03;;
77146;SDS011;66121;52.584;9.694;2024-01-06T04:17:51;33.40;;;12.97;;
77146;SDS011;66121;52.584;9.694;2024-01-06T04:20:17;30.17;;;11.15;;
77146;SDS011;66121;52.584;9.694;2024-01-06T04:22:43;30.92;;;11.35;;
77146;SDS011;66121;52.584;9.694;2024-01-06T04:25:08;44.67;;;15.87;;
77146;SDS011;66121;52.584;9.694;2024-01-06T04:27:33;38.75;;;14.20;;
77146;SDS011;66121;52.584;9.694;2024-01-06T04:29:59;34.88;;;13.52;;
77146;SDS011;66121;52.584;9.694;2024-01-06T04:32:25;42.92;;;15.00;;
77146;SDS011;66121;52.584;9.694;2024-01-06T04:34:50;40.63;;;13.88;;
77146;SDS011;66121;52.584;9.694;2024-01-06T04:37:15;41.53;;;13.82;;
77146;SDS011;66121;52.584;9.694;2024-01-06T04:39:41;39.40;;;13.87;;
77146;SDS011;66121;52.584;9.694;2024-01-06T04:42:06;45.63;;;14.67;;
77146;SDS011;66121;52.584;9.694;2024-01-06T04:44:31;26.37;;;11.27;;
77146;SDS011;66121;52.584;9.694;2024-01-06T04:46:57;41.13;;;13.80;;
77146;SDS011;66121;52.584;9.694;2024-01-06T04:49:22;27.85;;;11.30;;
77146;SDS011;66121;52.584;9.694;2024-01-06T04:51:48;36.27;;;12.27;;
77146;SDS011;66121;52.584;9.694;2024-01-06T04:54:13;40.35;;;12.93;;
77146;SDS011;66121;52.584;9.694;2024-01-06T04:56:38;47.45;;;15.00;;
77146;SDS011;66121;52.584;9.694;2024-01-06T04:59:04;37.05;;;10.93;;
77146;SDS011;66121;52.584;9.694;2024-01-06T05:01:30;35.38;;;13.93;;
77146;SDS011;66121;52.584;9.694;2024-01-06T05:03:56;39.78;;;13.07;;
77146;SDS011;66121;52.584;9.694;2024-01-06T05:06:22;27.97;;;11.90;;
77146;SDS011;66121;52.584;9.694;2024-01-06T05:08:48;35.10;;;12.80;;
77146;SDS011;66121;52.584;9.694;2024-01-06T05:11:14;34.72;;;12.80;;
77146;SDS011;66121;52.584;9.694;2024-01-06T05:13:39;35.47;;;13.05;;
77146;SDS011;66121;52.584;9.694;2024-01-06T05:16:04;30.08;;;10.98;;
77146;SDS011;66121;52.584;9.694;2024-01-06T05:18:30;32.40;;;11.55;;
77146;SDS011;66121;52.584;9.694;2024-01-06T05:20:55;33.67;;;12.20;;
77146;SDS011;66121;52.584;9.694;2024-01-06T05:23:21;37.13;;;13.95;;
77146;SDS011;66121;52.584;9.694;2024-01-06T05:25:47;36.38;;;14.32;;
77146;SDS011;66121;52.584;9.694;2024-01-06T05:28:12;33.08;;;12.57;;
77146;SDS011;66121;52.584;9.694;2024-01-06T05:30:38;35.80;;;12.20;;
77146;SDS011;66121;52.584;9.694;2024-01-06T05:33:03;39.17;;;13.85;;
77146;SDS011;66121;52.584;9.694;2024-01-06T05:35:29;45.78;;;15.40;;
77146;SDS011;66121;52.584;9.694;2024-01-06T05:37:54;26.73;;;10.32;;
77146;SDS011;66121;52.584;9.694;2024-01-06T05:40:20;26.70;;;9.07;;
77146;SDS011;66121;52.584;9.694;2024-01-06T05:42:45;29.33;;;10.68;;
77146;SDS011;66121;52.584;9.694;2024-01-06T05:45:11;33.45;;;12.40;;
77146;SDS011;66121;52.584;9.694;2024-01-06T05:47:39;35.28;;;13.93;;
77146;SDS011;66121;52.584;9.694;2024-01-06T05:50:05;39.20;;;12.60;;
77146;SDS011;66121;52.584;9.694;2024-01-06T05:52:32;33.42;;;12.05;;
77146;SDS011;66121;52.584;9.694;2024-01-06T05:54:58;32.07;;;12.43;;
77146;SDS011;66121;52.584;9.694;2024-01-06T05:57:23;36.40;;;13.13;;
77146;SDS011;66121;52.584;9.694;2024-01-06T05:59:48;31.77;;;12.25;;
77146;SDS011;66121;52.584;9.694;2024-01-06T06:02:14;26.30;;;11.70;;
77146;SDS011;66121;52.584;9.694;2024-01-06T06:04:39;37.05;;;13.27;;
77146;SDS011;66121;52.584;9.694;2024-01-06T06:07:04;41.43;;;13.77;;
77146;SDS011;66121;52.584;9.694;2024-01-06T06:09:30;31.25;;;11.93;;
77146;SDS011;66121;52.584;9.694;2024-01-06T06:11:55;37.00;;;12.98;;
77146;SDS011;66121;52.584;9.694;2024-01-06T06:14:21;43.88;;;13.95;;
77146;SDS011;66121;52.584;9.694;2024-01-06T06:16:46;42.60;;;12.60;;
77146;SDS011;66121;52.584;9.694;2024-01-06T06:19:12;38.70;;;13.85;;
77146;SDS011;66121;52.584;9.694;2024-01-06T06:21:38;38.83;;;14.32;;
77146;SDS011;66121;52.584;9.694;2024-01-06T06:24:03;42.80;;;13.55;;
77146;SDS011;66121;52.584;9.694;2024-01-06T06:26:29;38.92;;;13.48;;
77146;SDS011;66121;52.584;9.694;2024-01-06T06:28:55;40.10;;;14.23;;
77146;SDS011;66121;52.584;9.694;2024-01-06T06:31:20;39.95;;;12.73;;
77146;SDS011;66121;52.584;9.694;2024-01-06T06:33:45;36.15;;;12.25;;
77146;SDS011;66121;52.584;9.694;2024-01-06T06:36:11;27.93;;;12.30;;
77146;SDS011;66121;52.584;9.694;2024-01-06T06:38:36;35.65;;;13.57;;
77146;SDS011;66121;52.584;9.694;2024-01-06T06:41:01;39.25;;;13.40;;
77146;SDS011;66121;52.584;9.694;2024-01-06T06:43:27;38.67;;;12.10;;
77146;SDS011;66121;52.584;9.694;2024-01-06T06:45:52;44.40;;;14.30;;
77146;SDS011;66121;52.584;9.694;2024-01-06T06:48:18;22.30;;;9.65;;
77146;SDS011;66121;52.584;9.694;2024-01-06T06:50:43;39.10;;;14.97;;
77146;SDS011;66121;52.584;9.694;2024-01-06T06:53:09;39.72;;;14.13;;
77146;SDS011;66121;52.584;9.694;2024-01-06T06:55:34;34.67;;;13.27;;
77146;SDS011;66121;52.584;9.694;2024-01-06T06:58:02;40.75;;;15.40;;
77146;SDS011;66121;52.584;9.694;2024-01-06T07:00:28;45.00;;;15.52;;
77146;SDS011;66121;52.584;9.694;2024-01-06T07:02:53;37.70;;;12.40;;
77146;SDS011;66121;52.584;9.694;2024-01-06T07:05:18;42.70;;;15.93;;
77146;SDS011;66121;52.584;9.694;2024-01-06T07:07:43;39.73;;;13.40;;
77146;SDS011;66121;52.584;9.694;2024-01-06T07:10:11;29.35;;;12.27;;
77146;SDS011;66121;52.584;9.694;2024-01-06T07:12:37;47.85;;;14.40;;
77146;SDS011;66121;52.584;9.694;2024-01-06T07:15:02;43.23;;;14.67;;
77146;SDS011;66121;52.584;9.694;2024-01-06T07:17:28;47.08;;;14.95;;
77146;SDS011;66121;52.584;9.694;2024-01-06T07:19:53;36.17;;;12.57;;
77146;SDS011;66121;52.584;9.694;2024-01-06T07:22:19;38.72;;;14.00;;
77146;SDS011;66121;52.584;9.694;2024-01-06T07:24:45;40.30;;;14.02;;
77146;SDS011;66121;52.584;9.694;2024-01-06T07:27:10;42.83;;;13.82;;
77146;SDS011;66121;52.584;9.694;2024-01-06T07:29:36;29.67;;;11.77;;
77146;SDS011;66121;52.584;9.694;2024-01-06T07:32:02;27.50;;;11.20;;
77146;SDS011;66121;52.584;9.694;2024-01-06T07:34:28;28.65;;;11.23;;
77146;SDS011;66121;52.584;9.694;2024-01-06T07:36:53;38.92;;;13.50;;
77146;SDS011;66121;52.584;9.694;2024-01-06T07:39:19;35.78;;;12.48;;
77146;SDS011;66121;52.584;9.694;2024-01-06T07:41:44;31.77;;;11.47;;
77146;SDS011;66121;52.584;9.694;2024-01-06T07:44:11;35.08;;;12.00;;
77146;SDS011;66121;52.584;9.694;2024-01-06T07:46:38;29.33;;;11.63;;
77146;SDS011;66121;52.584;9.694;2024-01-06T07:49:05;36.70;;;11.82;;
77146;SDS011;66121;52.584;9.694;2024-01-06T07:51:30;23.55;;;8.80;;
77146;SDS011;66121;52.584;9.694;2024-01-06T07:53:56;34.45;;;11.57;;
77146;SDS011;66121;52.584;9.694;2024-01-06T07:56:21;30.80;;;10.98;;
77146;SDS011;66121;52.584;9.694;2024-01-06T07:58:46;24.20;;;9.00;;
77146;SDS011;66121;52.584;9.694;2024-01-06T08:01:12;24.40;;;9.77;;
77146;SDS011;66121;52.584;9.694;2024-01-06T08:03:38;31.67;;;12.02;;
77146;SDS011;66121;52.584;9.694;2024-01-06T08:06:03;28.05;;;10.82;;
77146;SDS011;66121;52.584;9.694;2024-01-06T08:08:29;24.45;;;11.20;;
77146;SDS011;66121;52.584;9.694;2024-01-06T08:10:54;29.30;;;11.07;;
77146;SDS011;66121;52.584;9.694;2024-01-06T08:13:19;26.10;;;10.50;;
77146;SDS011;66121;52.584;9.694;2024-01-06T08:15:45;19.75;;;8.18;;
77146;SDS011;66121;52.584;9.694;2024-01-06T08:18:10;23.55;;;10.02;;
77146;SDS011;66121;52.584;9.694;2024-01-06T08:20:35;15.20;;;6.68;;
77146;SDS011;66121;52.584;9.694;2024-01-06T08:23:01;20.67;;;7.07;;
77146;SDS011;66121;52.584;9.694;2024-01-06T08:25:26;20.33;;;8.73;;
77146;SDS011;66121;52.584;9.694;2024-01-06T08:27:52;29.42;;;10.80;;
77146;SDS011;66121;52.584;9.694;2024-01-06T08:30:17;23.60;;;9.33;;
77146;SDS011;66121;52.584;9.694;2024-01-06T08:32:43;24.30;;;9.35;;
77146;SDS011;66121;52.584;9.694;2024-01-06T08:35:09;25.53;;;10.00;;
77146;SDS011;66121;52.584;9.694;2024-01-06T08:37:34;21.63;;;7.95;;
77146;SDS011;66121;52.584;9.694;2024-01-06T08:39:59;19.13;;;8.77;;
77146;SDS011;66121;52.584;9.694;2024-01-06T08:42:25;20.75;;;9.40;;
77146;SDS011;66121;52.584;9.694;2024-01-06T08:44:51;19.95;;;9.85;;
77146;SDS011;66121;52.584;9.694;2024-01-06T08:47:16;16.83;;;8.25;;
77146;SDS011;66121;52.584;9.694;2024-01-06T08:49:42;15.93;;;5.65;;
77146;SDS011;66121;52.584;9.694;2024-01-06T08:52:07;12.27;;;6.77;;
77146;SDS011;66121;52.584;9.694;2024-01-06T08:54:32;17.77;;;8.20;;
77146;SDS011;66121;52.584;9.694;2024-01-06T08:56:58;14.25;;;6.88;;
77146;SDS011;66121;52.584;9.694;2024-01-06T08:59:23;16.60;;;7.23;;
77146;SDS011;66121;52.584;9.694;2024-01-06T09:01:48;19.40;;;8.23;;
77146;SDS011;66121;52.584;9.694;2024-01-06T09:04:14;20.20;;;7.53;;
77146;SDS011;66121;52.584;9.694;2024-01-06T09:06:39;18.67;;;7.95;;
77146;SDS011;66121;52.584;9.694;2024-01-06T09:09:06;17.98;;;7.68;;
77146;SDS011;66121;52.584;9.694;2024-01-06T09:11:32;17.85;;;7.68;;
77146;SDS011;66121;52.584;9.694;2024-01-06T09:13:58;16.73;;;8.32;;
77146;SDS011;66121;52.584;9.694;2024-01-06T09:16:23;18.92;;;8.45;;
77146;SDS011;66121;52.584;9.694;2024-01-06T09:18:49;13.48;;;7.07;;
77146;SDS011;66121;52.584;9.694;2024-01-06T09:21:14;18.38;;;8.77;;
77146;SDS011;66121;52.584;9.694;2024-01-06T09:23:40;14.50;;;6.40;;
77146;SDS011;66121;52.584;9.694;2024-01-06T09:26:05;14.20;;;6.77;;
77146;SDS011;66121;52.584;9.694;2024-01-06T09:28:31;14.95;;;7.65;;
77146;SDS011;66121;52.584;9.694;2024-01-06T09:30:56;11.63;;;7.50;;
77146;SDS011;66121;52.584;9.694;2024-01-06T09:33:22;17.58;;;8.38;;
77146;SDS011;66121;52.584;9.694;2024-01-06T09:35:48;14.23;;;6.63;;
77146;SDS011;66121;52.584;9.694;2024-01-06T09:38:13;17.08;;;7.13;;
77146;SDS011;66121;52.584;9.694;2024-01-06T09:40:42;19.45;;;7.45;;
77146;SDS011;66121;52.584;9.694;2024-01-06T09:43:09;21.65;;;10.85;;
77146;SDS011;66121;52.584;9.694;2024-01-06T09:45:35;17.08;;;7.75;;
77146;SDS011;66121;52.584;9.694;2024-01-06T09:48:00;18.33;;;7.97;;
77146;SDS011;66121;52.584;9.694;2024-01-06T09:50:42;23.35;;;8.82;;
77146;SDS011;66121;52.584;9.694;2024-01-06T09:53:10;19.88;;;9.40;;
77146;SDS011;66121;52.584;9.694;2024-01-06T09:55:36;22.25;;;9.20;;
77146;SDS011;66121;52.584;9.694;2024-01-06T09:58:04;15.10;;;5.60;;
77146;SDS011;66121;52.584;9.694;2024-01-06T10:00:30;19.30;;;7.93;;
77146;SDS011;66121;52.584;9.694;2024-01-06T10:02:55;20.33;;;9.63;;
77146;SDS011;66121;52.584;9.694;2024-01-06T10:05:20;28.73;;;11.05;;
77146;SDS011;66121;52.584;9.694;2024-01-06T10:07:46;18.63;;;8.13;;
77146;SDS011;66121;52.584;9.694;2024-01-06T10:10:12;23.00;;;8.85;;
77146;SDS011;66121;52.584;9.694;2024-01-06T10:12:39;19.85;;;7.60;;
77146;SDS011;66121;52.584;9.694;2024-01-06T10:15:06;20.80;;;8.50;;
77146;SDS011;66121;52.584;9.694;2024-01-06T10:17:36;16.50;;;7.90;;
77146;SDS011;66121;52.584;9.694;2024-01-06T10:20:05;11.18;;;6.57;;
77146;SDS011;66121;52.584;9.694;2024-01-06T10:22:37;25.02;;;10.00;;
77146;SDS011;66121;52.584;9.694;2024-01-06T10:25:06;23.40;;;10.80;;
77146;SDS011;66121;52.584;9.694;2024-01-06T10:27:39;16.08;;;7.53;;
77146;SDS011;66121;52.584;9.694;2024-01-06T10:30:06;17.50;;;8.32;;
77146;SDS011;66121;52.584;9.694;2024-01-06T10:32:32;26.65;;;10.57;;
77146;SDS011;66121;52.584;9.694;2024-01-06T10:34:58;24.05;;;9.48;;
77146;SDS011;66121;52.584;9.694;2024-01-06T10:37:26;22.58;;;8.52;;
77146;SDS011;66121;52.584;9.694;2024-01-06T10:42:37;29.27;;;9.68;;
77146;SDS011;66121;52.584;9.694;2024-01-06T10:45:05;19.05;;;7.38;;
77146;SDS011;66121;52.584;9.694;2024-01-06T10:47:33;19.90;;;9.27;;
77146;SDS011;66121;52.584;9.694;2024-01-06T10:49:59;20.58;;;8.45;;
77146;SDS011;66121;52.584;9.694;2024-01-06T10:52:26;28.73;;;11.80;;
77146;SDS011;66121;52.584;9.694;2024-01-06T10:54:53;33.58;;;12.82;;
77146;SDS011;66121;52.584;9.694;2024-01-06T10:57:20;22.27;;;10.25;;
77146;SDS011;66121;52.584;9.694;2024-01-06T10:59:47;25.50;;;10.93;;
77146;SDS011;66121;52.584;9.694;2024-01-06T11:02:14;26.45;;;9.65;;
77146;SDS011;66121;52.584;9.694;2024-01-06T11:04:42;28.23;;;10.98;;
77146;SDS011;66121;52.584;9.694;2024-01-06T11:07:09;34.75;;;11.57;;
77146;SDS011;66121;52.584;9.694;2024-01-06T11:09:35;26.13;;;11.18;;
77146;SDS011;66121;52.584;9.694;2024-01-06T11:12:04;33.70;;;12.20;;
77146;SDS011;66121;52.584;9.694;2024-01-06T11:14:35;25.70;;;9.57;;
77146;SDS011;66121;52.584;9.694;2024-01-06T11:17:02;31.33;;;11.88;;
77146;SDS011;66121;52.584;9.694;2024-01-06T11:22:19;75.38;;;28.75;;
77146;SDS011;66121;52.584;9.694;2024-01-06T11:24:52;92.90;;;36.65;;
77146;SDS011;66121;52.584;9.694;2024-01-06T11:27:22;28.85;;;14.27;;
77146;SDS011;66121;52.584;9.694;2024-01-06T11:29:57;33.25;;;15.13;;
77146;SDS011;66121;52.584;9.694;2024-01-06T11:32:25;45.30;;;21.45;;
77146;SDS011;66121;52.584;9.694;2024-01-06T11:34:54;28.88;;;12.68;;
77146;SDS011;66121;52.584;9.694;2024-01-06T11:39:50;31.60;;;12.15;;
77146;SDS011;66121;52.584;9.694;2024-01-06T11:42:16;23.27;;;8.82;;
77146;SDS011;66121;52.584;9.694;2024-01-06T11:44:44;29.25;;;10.82;;
77146;SDS011;66121;52.584;9.694;2024-01-06T11:47:14;35.17;;;13.43;;
77146;SDS011;66121;52.584;9.694;2024-01-06T11:49:43;31.75;;;13.63;;
77146;SDS011;66121;52.584;9.694;2024-01-06T11:52:09;28.08;;;13.02;;
77146;SDS011;66121;52.584;9.694;2024-01-06T11:54:35;31.33;;;11.30;;
77146;SDS011;66121;52.584;9.694;2024-01-06T11:57:00;30.77;;;11.80;;
77146;SDS011;66121;52.584;9.694;2024-01-06T11:59:26;41.17;;;15.73;;
77146;SDS011;66121;52.584;9.694;2024-01-06T12:01:52;27.98;;;13.07;;
77146;SDS011;66121;52.584;9.694;2024-01-06T12:04:17;30.05;;;13.20;;
77146;SDS011;66121;52.584;9.694;2024-01-06T12:06:43;33.63;;;10.98;;
77146;SDS011;66121;52.584;9.694;2024-01-06T12:09:11;27.08;;;10.52;;
77146;SDS011;66121;52.584;9.694;2024-01-06T12:11:41;39.08;;;13.82;;
77146;SDS011;66121;52.584;9.694;2024-01-06T12:14:09;29.48;;;12.13;;
77146;SDS011;66121;52.584;9.694;2024-01-06T12:16:35;38.22;;;14.07;;
77146;SDS011;66121;52.584;9.694;2024-01-06T12:19:01;36.47;;;15.13;;
77146;SDS011;66121;52.584;9.694;2024-01-06T12:21:28;24.27;;;9.73;;
77146;SDS011;66121;52.584;9.694;2024-01-06T12:23:54;22.25;;;12.07;;
77146;SDS011;66121;52.584;9.694;2024-01-06T12:26:36;24.60;;;9.63;;
77146;SDS011;66121;52.584;9.694;2024-01-06T12:29:03;33.07;;;12.50;;
77146;SDS011;66121;52.584;9.694;2024-01-06T12:31:29;33.03;;;13.88;;
77146;SDS011;66121;52.584;9.694;2024-01-06T12:33:55;25.83;;;11.13;;
77146;SDS011;66121;52.584;9.694;2024-01-06T12:36:21;28.42;;;10.98;;
77146;SDS011;66121;52.584;9.694;2024-01-06T12:38:46;33.05;;;13.50;;
77146;SDS011;66121;52.584;9.694;2024-01-06T12:41:12;36.38;;;12.00;;
77146;SDS011;66121;52.584;9.694;2024-01-06T12:43:37;21.10;;;12.35;;
77146;SDS011;66121;52.584;9.694;2024-01-06T12:46:03;17.63;;;7.87;;
77146;SDS011;66121;52.584;9.694;2024-01-06T12:48:28;36.70;;;12.48;;
77146;SDS011;66121;52.584;9.694;2024-01-06T12:50:54;25.42;;;10.65;;
77146;SDS011;66121;52.584;9.694;2024-01-06T12:53:19;23.70;;;9.67;;
77146;SDS011;66121;52.584;9.694;2024-01-06T12:55:44;35.53;;;12.00;;
77146;SDS011;66121;52.584;9.694;2024-01-06T12:58:10;34.92;;;12.38;;
77146;SDS011;66121;52.584;9.694;2024-01-06T13:00:36;29.60;;;12.02;;
77146;SDS011;66121;52.584;9.694;2024-01-06T13:03:01;32.65;;;14.23;;
77146;SDS011;66121;52.584;9.694;2024-01-06T13:05:27;31.35;;;11.95;;
77146;SDS011;66121;52.584;9.694;2024-01-06T13:07:52;31.40;;;11.97;;
77146;SDS011;66121;52.584;9.694;2024-01-06T13:10:18;31.42;;;13.93;;
77146;SDS011;66121;52.584;9.694;2024-01-06T13:12:44;25.48;;;10.15;;
77146;SDS011;66121;52.584;9.694;2024-01-06T13:15:11;16.52;;;7.28;;
77146;SDS011;66121;52.584;9.694;2024-01-06T13:17:36;37.13;;;14.40;;
77146;SDS011;66121;52.584;9.694;2024-01-06T13:20:03;29.30;;;11.25;;
77146;SDS011;66121;52.584;9.694;2024-01-06T13:22:32;20.00;;;9.30;;
77146;SDS011;66121;52.584;9.694;2024-01-06T13:24:58;22.00;;;9.77;;
77146;SDS011;66121;52.584;9.694;2024-01-06T13:27:24;30.90;;;10.80;;
77146;SDS011;66121;52.584;9.694;2024-01-06T13:29:49;34.40;;;12.88;;
77146;SDS011;66121;52.584;9.694;2024-01-06T13:32:15;22.08;;;10.13;;
77146;SDS011;66121;52.584;9.694;2024-01-06T13:34:40;28.50;;;11.82;;
77146;SDS011;66121;52.584;9.694;2024-01-06T13:37:06;29.67;;;14.07;;
77146;SDS011;66121;52.584;9.694;2024-01-06T13:39:32;23.33;;;9.88;;
77146;SDS011;66121;52.584;9.694;2024-01-06T13:41:57;26.20;;;12.00;;
77146;SDS011;66121;52.584;9.694;2024-01-06T13:44:23;29.77;;;11.85;;
77146;SDS011;66121;52.584;9.694;2024-01-06T13:46:48;27.88;;;11.60;;
77146;SDS011;66121;52.584;9.694;2024-01-06T13:49:16;21.58;;;8.63;;
77146;SDS011;66121;52.584;9.694;2024-01-06T13:51:41;24.02;;;11.13;;
77146;SDS011;66121;52.584;9.694;2024-01-06T13:54:07;26.63;;;11.43;;
77146;SDS011;66121;52.584;9.694;2024-01-06T13:56:34;21.20;;;9.07;;
77146;SDS011;66121;52.584;9.694;2024-01-06T13:58:59;23.80;;;10.48;;
77146;SDS011;66121;52.584;9.694;2024-01-06T14:01:25;19.98;;;9.60;;
77146;SDS011;66121;52.584;9.694;2024-01-06T14:03:50;30.17;;;13.48;;
77146;SDS011;66121;52.584;9.694;2024-01-06T14:06:22;27.80;;;11.82;;
77146;SDS011;66121;52.584;9.694;2024-01-06T14:08:48;32.35;;;12.15;;
77146;SDS011;66121;52.584;9.694;2024-01-06T14:11:13;24.27;;;10.50;;
77146;SDS011;66121;52.584;9.694;2024-01-06T14:13:39;17.70;;;8.37;;
77146;SDS011;66121;52.584;9.694;2024-01-06T14:16:04;20.80;;;9.17;;
77146;SDS011;66121;52.584;9.694;2024-01-06T14:18:29;28.95;;;11.50;;
77146;SDS011;66121;52.584;9.694;2024-01-06T14:20:55;21.30;;;9.18;;
77146;SDS011;66121;52.584;9.694;2024-01-06T14:23:21;24.35;;;11.13;;